createdAt,value
2023-11-24T00:01:12.531Z,3.13
2023-11-24T00:03:45.109Z,3.07
2023-11-24T00:06:16.315Z,3.07
2023-11-24T00:08:49.257Z,2.47
2023-11-24T00:11:20.745Z,2.60
2023-11-24T00:13:50.810Z,1.83
2023-11-24T00:16:22.806Z,3.00
2023-11-24T00:18:52.719Z,2.07
2023-11-24T00:21:22.811Z,1.97
2023-11-24T00:23:55.602Z,2.07
2023-11-24T00:26:27.689Z,2.27
2023-11-24T00:28:57.913Z,1.83
2023-11-24T00:31:28.960Z,2.33
2023-11-24T00:34:00.062Z,1.70
2023-11-24T00:36:31.265Z,1.67
2023-11-24T00:39:05.596Z,1.43
2023-11-24T00:41:35.494Z,1.60
2023-11-24T00:44:05.535Z,1.70
2023-11-24T00:46:36.599Z,1.20
2023-11-24T00:49:06.963Z,1.53
2023-11-24T00:51:36.850Z,1.33
2023-11-24T00:54:10.906Z,1.50
2023-11-24T00:56:40.784Z,1.53
2023-11-24T00:59:10.655Z,1.67
2023-11-24T01:01:40.859Z,1.40
2023-11-24T01:04:12.171Z,1.50
2023-11-24T01:06:42.408Z,1.47
2023-11-24T01:09:14.919Z,1.10
2023-11-24T01:11:44.766Z,1.00
2023-11-24T01:14:14.590Z,1.10
2023-11-24T01:16:44.490Z,0.93
2023-11-24T01:19:15.867Z,1.53
2023-11-24T01:21:45.870Z,1.13
2023-11-24T01:24:18.540Z,1.03
2023-11-24T01:26:48.876Z,1.00
2023-11-24T01:29:18.767Z,1.60
2023-11-24T01:31:48.787Z,2.40
2023-11-24T01:34:18.743Z,2.00
2023-11-24T01:36:48.856Z,2.70
2023-11-24T01:39:22.555Z,3.10
2023-11-24T01:41:52.574Z,2.27
2023-11-24T01:44:24.174Z,2.13
2023-11-24T01:46:54.090Z,1.63
2023-11-24T01:49:24.519Z,1.37
2023-11-24T01:51:56.439Z,0.90
2023-11-24T01:54:35.054Z,1.40
2023-11-24T01:57:06.592Z,1.57
2023-11-24T01:59:36.896Z,1.60
2023-11-24T02:02:07.993Z,1.40
2023-11-24T02:04:38.205Z,1.87
2023-11-24T02:07:08.249Z,1.63
2023-11-24T02:09:40.841Z,0.90
2023-11-24T02:12:11.430Z,1.43
2023-11-24T02:14:41.321Z,1.03
2023-11-24T02:17:11.161Z,1.30
2023-11-24T02:19:41.291Z,1.23
2023-11-24T02:22:11.371Z,1.80
2023-11-24T02:24:44.040Z,1.70
2023-11-24T02:27:14.850Z,1.90
2023-11-24T02:29:44.713Z,2.40
2023-11-24T02:32:15.173Z,1.80
2023-11-24T02:34:45.554Z,1.53
2023-11-24T02:37:15.824Z,1.67
2023-11-24T02:39:49.316Z,1.60
2023-11-24T02:42:19.364Z,1.77
2023-11-24T02:44:49.280Z,1.33
2023-11-24T02:47:19.204Z,1.83
2023-11-24T02:49:49.082Z,1.97
2023-11-24T02:52:18.923Z,0.93
2023-11-24T02:54:53.781Z,1.50
2023-11-24T02:57:24.475Z,1.07
2023-11-24T02:59:54.430Z,1.53
2023-11-24T03:02:24.516Z,1.10
2023-11-24T03:04:52.023Z,1.73
2023-11-24T03:07:21.934Z,2.13
2023-11-24T03:09:54.617Z,1.77
2023-11-24T03:12:24.607Z,1.90
2023-11-24T03:14:55.365Z,1.70
2023-11-24T03:17:25.186Z,1.60
2023-11-24T03:19:55.009Z,1.50
2023-11-24T03:22:25.908Z,1.57
2023-11-24T03:25:01.043Z,1.73
2023-11-24T03:27:30.938Z,1.60
2023-11-24T03:30:00.872Z,1.67
2023-11-24T03:32:31.563Z,1.63
2023-11-24T03:35:01.522Z,1.10
2023-11-24T03:37:31.464Z,1.23
2023-11-24T03:40:04.799Z,2.03
2023-11-24T03:42:34.713Z,1.30
2023-11-24T03:45:06.106Z,1.30
2023-11-24T03:47:36.593Z,1.80
2023-11-24T03:50:06.988Z,1.93
2023-11-24T03:52:37.204Z,1.40
2023-11-24T03:55:12.824Z,1.23
2023-11-24T03:57:45.604Z,1.83
2023-11-24T04:00:16.292Z,1.60
2023-11-24T04:02:47.759Z,1.30
2023-11-24T04:05:19.119Z,1.40
2023-11-24T04:07:49.594Z,1.47
2023-11-24T04:10:22.698Z,1.03
2023-11-24T04:12:52.662Z,1.10
2023-11-24T04:15:22.515Z,1.57
2023-11-24T04:17:52.482Z,1.33
2023-11-24T04:20:22.644Z,0.77
2023-11-24T04:22:52.551Z,0.73
2023-11-24T04:25:25.108Z,0.93
2023-11-24T04:27:55.039Z,1.20
2023-11-24T04:30:24.989Z,0.93
2023-11-24T04:32:55.062Z,1.00
2023-11-24T04:35:28.650Z,1.03
2023-11-24T04:37:58.549Z,1.33
2023-11-24T04:40:31.257Z,0.90
2023-11-24T04:43:01.176Z,1.00
2023-11-24T04:45:32.476Z,1.33
2023-11-24T04:48:04.274Z,1.07
2023-11-24T04:50:34.372Z,0.80
2023-11-24T04:53:04.277Z,1.00
2023-11-24T04:55:37.736Z,1.37
2023-11-24T04:58:07.664Z,0.97
2023-11-24T05:00:37.599Z,1.30
2023-11-24T05:03:07.531Z,1.40
2023-11-24T05:05:37.423Z,1.53
2023-11-24T05:08:07.827Z,1.27
2023-11-24T05:10:40.297Z,1.17
2023-11-24T05:13:10.694Z,1.40
2023-11-24T05:15:40.786Z,0.93
2023-11-24T05:18:10.774Z,1.37
2023-11-24T05:20:40.656Z,0.90
2023-11-24T05:23:10.692Z,1.60
2023-11-24T05:25:43.612Z,1.17
2023-11-24T05:28:14.183Z,1.50
2023-11-24T05:30:44.029Z,1.10
2023-11-24T05:33:13.899Z,1.60
2023-11-24T05:35:44.023Z,1.50
2023-11-24T05:38:13.908Z,1.83
2023-11-24T05:40:47.690Z,1.27
2023-11-24T05:43:17.602Z,1.77
2023-11-24T05:45:48.620Z,1.33
2023-11-24T05:48:18.611Z,1.50
2023-11-24T05:50:48.830Z,1.10
2023-11-24T05:53:18.725Z,1.20
2023-11-24T05:55:51.360Z,1.47
2023-11-24T05:58:23.079Z,1.57
2023-11-24T06:00:53.126Z,1.13
2023-11-24T06:03:23.162Z,1.20
2023-11-24T06:05:53.825Z,1.13
2023-11-24T06:08:23.755Z,0.97
2023-11-24T06:10:56.342Z,1.00
2023-11-24T06:13:26.236Z,1.03
2023-11-24T06:15:56.318Z,1.47
2023-11-24T06:18:27.258Z,0.80
2023-11-24T06:20:57.308Z,1.00
2023-11-24T06:23:27.204Z,1.30
2023-11-24T06:25:59.732Z,1.10
2023-11-24T06:28:30.556Z,1.13
2023-11-24T06:31:02.015Z,1.20
2023-11-24T06:33:32.151Z,1.40
2023-11-24T06:36:02.076Z,1.10
2023-11-24T06:38:31.878Z,1.10
2023-11-24T06:41:04.567Z,1.00
2023-11-24T06:43:37.276Z,0.93
2023-11-24T06:46:08.298Z,1.23
2023-11-24T06:48:39.637Z,1.00
2023-11-24T06:51:10.080Z,1.23
2023-11-24T06:53:39.938Z,1.37
2023-11-24T06:56:12.712Z,1.73
2023-11-24T06:58:43.258Z,1.40
2023-11-24T07:01:13.253Z,1.53
2023-11-24T07:03:43.252Z,1.70
2023-11-24T07:06:13.196Z,1.50
2023-11-24T07:08:43.147Z,1.53
2023-11-24T07:11:15.768Z,2.07
2023-11-24T07:13:45.671Z,1.80
2023-11-24T07:16:16.026Z,1.83
2023-11-24T07:18:46.106Z,1.57
2023-11-24T07:21:17.061Z,1.60
2023-11-24T07:23:46.972Z,1.63
2023-11-24T07:26:23.433Z,2.00
2023-11-24T07:28:54.012Z,1.93
2023-11-24T07:31:26.774Z,1.83
2023-11-24T07:33:56.696Z,1.97
2023-11-24T07:36:27.287Z,2.30
2023-11-24T07:38:57.363Z,2.33
2023-11-24T07:41:29.920Z,1.10
2023-11-24T07:43:59.915Z,0.80
2023-11-24T07:46:29.920Z,0.87
2023-11-24T07:48:59.934Z,1.53
2023-11-24T07:51:30.158Z,1.30
2023-11-24T07:54:00.198Z,0.90
2023-11-24T07:56:33.252Z,1.37
2023-11-24T07:59:03.515Z,1.27
2023-11-24T08:01:34.192Z,1.07
2023-11-24T08:04:04.389Z,1.07
2023-11-24T08:06:34.504Z,1.53
2023-11-24T08:09:09.324Z,1.43
2023-11-24T08:11:41.907Z,1.30
2023-11-24T08:14:11.758Z,1.27
2023-11-24T08:16:41.593Z,1.40
2023-11-24T08:19:12.336Z,1.90
2023-11-24T08:21:42.507Z,1.60
2023-11-24T08:24:12.861Z,1.30
2023-11-24T08:26:45.344Z,1.37
2023-11-24T08:29:17.141Z,1.10
2023-11-24T08:31:49.637Z,1.10
2023-11-24T08:34:20.068Z,1.20
2023-11-24T08:36:50.069Z,0.80
2023-11-24T08:39:20.454Z,0.87
2023-11-24T08:41:54.419Z,1.00
2023-11-24T08:44:26.031Z,1.50
2023-11-24T08:46:56.422Z,0.97
2023-11-24T08:49:26.297Z,1.30
2023-11-24T08:51:56.139Z,1.27
2023-11-24T08:54:26.057Z,1.50
2023-11-24T08:56:58.766Z,1.07
2023-11-24T08:59:28.694Z,1.67
2023-11-24T09:01:59.668Z,1.10
2023-11-24T09:04:32.057Z,1.50
2023-11-24T09:07:02.462Z,0.80
2023-11-24T09:09:34.667Z,1.23
2023-11-24T09:12:08.740Z,1.60
2023-11-24T09:14:40.145Z,1.27
2023-11-24T09:17:10.072Z,1.10
2023-11-24T09:19:39.934Z,1.40
2023-11-24T09:22:14.637Z,2.00
2023-11-24T09:24:46.648Z,1.57
2023-11-24T09:27:23.080Z,1.17
2023-11-24T09:29:53.214Z,0.83
2023-11-24T09:32:23.207Z,1.53
2023-11-24T09:34:53.216Z,1.10
2023-11-24T09:37:23.320Z,1.00
2023-11-24T09:39:55.621Z,1.20
2023-11-24T09:42:33.476Z,1.40
2023-11-24T09:45:09.757Z,1.60
2023-11-24T09:47:40.664Z,1.00
2023-11-24T09:50:14.076Z,1.47
2023-11-24T09:52:47.649Z,1.00
2023-11-24T09:55:20.234Z,1.00
2023-11-24T09:57:54.368Z,1.00
2023-11-24T10:00:24.770Z,0.80
2023-11-24T10:02:56.097Z,0.77
2023-11-24T10:05:27.733Z,1.20
2023-11-24T10:07:59.308Z,0.87
2023-11-24T10:10:30.387Z,0.83
2023-11-24T10:13:05.171Z,0.90
2023-11-24T10:15:35.968Z,1.10
2023-11-24T10:18:05.929Z,1.70
2023-11-24T10:20:37.221Z,1.03
2023-11-24T10:23:08.254Z,2.40
2023-11-24T10:25:38.892Z,1.83
2023-11-24T10:28:12.730Z,1.50
2023-11-24T10:30:43.903Z,1.30
2023-11-24T10:33:34.607Z,1.20
2023-11-24T10:36:07.050Z,1.17
2023-11-24T10:38:37.798Z,1.10
2023-11-24T10:41:09.211Z,1.17
2023-11-24T10:43:42.788Z,0.90
2023-11-24T10:46:17.782Z,0.63
2023-11-24T10:48:52.257Z,0.60
2023-11-24T10:51:29.217Z,0.50
2023-11-24T10:54:00.841Z,0.80
2023-11-24T10:56:35.178Z,0.73
2023-11-24T10:59:10.726Z,0.40
2023-11-24T11:01:40.853Z,0.53
2023-11-24T11:04:12.870Z,0.60
2023-11-24T11:06:51.840Z,0.43
2023-11-24T11:09:31.564Z,0.77
2023-11-24T11:12:38.464Z,0.77
2023-11-24T11:15:14.265Z,0.83
2023-11-24T11:17:44.216Z,1.20
2023-11-24T11:20:16.506Z,1.00
2023-11-24T11:22:48.503Z,0.80
2023-11-24T11:25:43.865Z,1.00
2023-11-24T11:28:47.983Z,1.43
2023-11-24T11:31:29.523Z,0.80
2023-11-24T11:34:13.728Z,0.73
2023-11-24T11:36:55.911Z,0.60
2023-11-24T11:39:29.119Z,0.57
2023-11-24T11:41:59.756Z,1.20
2023-11-24T11:44:35.508Z,0.60
2023-11-24T11:47:14.442Z,0.70
2023-11-24T11:49:44.908Z,0.87
2023-11-24T11:52:15.435Z,1.30
2023-11-24T11:54:46.846Z,1.37
2023-11-24T11:57:16.722Z,1.30
2023-11-24T11:59:48.366Z,1.30
2023-11-24T12:02:22.763Z,1.03
2023-11-24T12:04:53.721Z,0.97
2023-11-24T12:07:24.482Z,1.33
2023-11-24T12:09:55.135Z,1.83
2023-11-24T12:12:25.545Z,0.90
2023-11-24T12:14:56.119Z,1.10
2023-11-24T12:17:29.869Z,0.90
2023-11-24T12:20:00.394Z,0.70
2023-11-24T12:22:32.108Z,1.00
2023-11-24T12:25:03.537Z,0.70
2023-11-24T12:27:35.171Z,0.80
2023-11-24T12:30:12.312Z,0.70
2023-11-24T12:32:46.236Z,0.70
2023-11-24T12:35:16.923Z,0.83
2023-11-24T12:37:47.937Z,0.80
2023-11-24T12:40:23.560Z,0.70
2023-11-24T12:42:55.060Z,1.07
2023-11-24T12:45:26.990Z,1.20
2023-11-24T12:48:07.075Z,0.87
2023-11-24T12:50:37.139Z,1.00
2023-11-24T12:53:07.475Z,0.97
2023-11-24T12:55:37.862Z,1.03
2023-11-24T12:58:07.770Z,1.40
2023-11-24T13:00:38.213Z,1.30
2023-11-24T13:03:11.462Z,1.13
2023-11-24T13:05:41.506Z,1.07
2023-11-24T13:08:11.397Z,1.27
2023-11-24T13:10:42.115Z,1.53
2023-11-24T13:13:12.387Z,1.13
2023-11-24T13:15:43.021Z,1.10
2023-11-24T13:18:15.620Z,1.57
2023-11-24T13:20:46.023Z,1.63
2023-11-24T13:23:16.338Z,1.40
2023-11-24T13:25:46.253Z,1.50
2023-11-24T13:28:19.273Z,1.60
2023-11-24T13:30:51.809Z,1.00
2023-11-24T13:33:24.298Z,1.73
2023-11-24T13:35:54.674Z,1.97
2023-11-24T13:38:24.701Z,1.33
2023-11-24T13:40:56.006Z,0.90
2023-11-24T13:43:26.087Z,1.30
2023-11-24T13:45:56.147Z,2.20
2023-11-24T13:48:30.431Z,1.50
2023-11-24T13:51:04.682Z,2.40
2023-11-24T13:53:37.354Z,1.80
2023-11-24T13:56:07.593Z,2.73
2023-11-24T13:58:37.619Z,1.77
2023-11-24T14:01:08.048Z,1.70
2023-11-24T14:03:41.654Z,1.80
2023-11-24T14:06:12.061Z,1.83
2023-11-24T14:08:42.229Z,1.90
2023-11-24T14:11:12.789Z,1.60
2023-11-24T14:13:42.806Z,1.73
2023-11-24T14:16:13.502Z,1.77
2023-11-24T14:18:47.551Z,2.10
2023-11-24T14:21:20.289Z,1.80
2023-11-24T14:23:50.175Z,1.20
2023-11-24T14:26:20.099Z,0.70
2023-11-24T14:28:50.087Z,0.90
2023-11-24T14:31:20.077Z,0.30
2023-11-24T14:33:52.890Z,0.60
2023-11-24T14:36:22.741Z,0.83
2023-11-24T14:38:54.076Z,0.70
2023-11-24T14:41:23.981Z,1.60
2023-11-24T14:43:55.185Z,0.63
2023-11-24T14:46:30.447Z,1.30
2023-11-24T14:49:05.201Z,1.57
2023-11-24T14:51:37.766Z,1.90
2023-11-24T14:54:07.923Z,1.70
2023-11-24T14:56:37.847Z,1.80
2023-11-24T14:59:10.171Z,2.30
2023-11-24T15:01:40.523Z,1.80
2023-11-24T15:04:19.174Z,2.07
2023-11-24T15:06:53.091Z,2.00
2023-11-24T15:09:26.169Z,1.57
2023-11-24T15:11:56.559Z,1.13
2023-11-24T15:14:38.114Z,0.97
2023-11-24T15:17:11.448Z,0.67
2023-11-24T15:19:44.430Z,1.63
2023-11-24T15:22:20.423Z,1.60
2023-11-24T15:24:54.631Z,2.50
2023-11-24T15:27:25.526Z,1.83
2023-11-24T15:29:55.769Z,1.60
2023-11-24T15:32:25.757Z,1.83
2023-11-24T15:34:58.438Z,1.30
2023-11-24T15:37:28.615Z,1.67
2023-11-24T15:40:00.438Z,1.40
2023-11-24T15:42:33.070Z,0.60
2023-11-24T15:45:03.563Z,0.70
2023-11-24T15:47:35.817Z,0.70
2023-11-24T15:50:12.776Z,0.67
2023-11-24T15:52:45.361Z,0.60
2023-11-24T15:55:17.621Z,0.80
2023-11-24T15:57:47.853Z,1.00
2023-11-24T16:00:29.395Z,1.20
2023-11-24T16:02:59.332Z,0.87
2023-11-24T16:05:33.965Z,0.63
2023-11-24T16:08:05.688Z,0.73
2023-11-24T16:10:45.828Z,0.57
2023-11-24T16:13:20.671Z,1.07
2023-11-24T16:15:50.902Z,0.90
2023-11-24T16:18:32.257Z,1.30
2023-11-24T16:21:08.685Z,1.10
2023-11-24T16:23:38.672Z,0.97
2023-11-24T16:26:11.540Z,0.80
2023-11-24T16:28:43.013Z,1.10
2023-11-24T16:31:13.827Z,1.20
2023-11-24T16:33:43.758Z,0.80
2023-11-24T16:36:21.042Z,0.70
2023-11-24T16:38:50.956Z,1.63
2023-11-24T16:41:21.011Z,0.97
2023-11-24T16:43:50.829Z,0.63
2023-11-24T16:46:22.609Z,0.87
2023-11-24T16:48:52.558Z,0.70
2023-11-24T16:51:25.177Z,1.00
2023-11-24T16:53:56.051Z,1.43
2023-11-24T16:56:25.993Z,2.10
2023-11-24T16:58:58.042Z,2.00
2023-11-24T17:01:27.974Z,1.43
2023-11-24T17:03:59.454Z,1.70
2023-11-24T17:06:32.090Z,1.30
2023-11-24T17:09:04.928Z,1.10
2023-11-24T17:11:35.031Z,0.70
2023-11-24T17:14:05.769Z,0.70
2023-11-24T17:16:37.220Z,0.87
2023-11-24T17:19:07.371Z,0.87
2023-11-24T17:21:42.680Z,0.93
2023-11-24T17:24:12.734Z,1.73
2023-11-24T17:26:43.551Z,1.33
2023-11-24T17:29:15.209Z,1.20
2023-11-24T17:31:46.056Z,0.90
2023-11-24T17:34:16.150Z,0.80
2023-11-24T17:36:49.271Z,1.07
2023-11-24T17:39:19.830Z,1.10
2023-11-24T17:41:49.807Z,1.43
2023-11-24T17:44:19.799Z,1.80
2023-11-24T17:46:50.247Z,1.47
2023-11-24T17:49:20.323Z,1.23
2023-11-24T17:51:52.937Z,1.63
2023-11-24T17:54:23.675Z,1.40
2023-11-24T17:56:55.005Z,1.50
2023-11-24T17:59:24.893Z,1.30
2023-11-24T18:01:54.912Z,2.23
2023-11-24T18:04:24.981Z,1.77
2023-11-24T18:06:57.556Z,2.13
2023-11-24T18:09:27.558Z,1.63
2023-11-24T18:11:57.938Z,1.90
2023-11-24T18:14:28.606Z,1.53
2023-11-24T18:16:58.459Z,2.90
2023-11-24T18:19:28.465Z,1.43
2023-11-24T18:22:01.004Z,2.63
2023-11-24T18:24:31.022Z,1.90
2023-11-24T18:27:00.873Z,2.00
2023-11-24T18:29:30.986Z,2.00
2023-11-24T18:32:00.936Z,2.10
2023-11-24T18:34:31.071Z,1.43
2023-11-24T18:37:06.802Z,1.37
2023-11-24T18:39:36.808Z,1.87
2023-11-24T18:42:07.128Z,1.50
2023-11-24T18:44:37.419Z,1.30
2023-11-24T18:47:07.563Z,1.33
2023-11-24T18:49:37.517Z,1.57
2023-11-24T18:52:10.223Z,1.00
2023-11-24T18:54:43.567Z,1.03
2023-11-24T18:57:14.487Z,2.30
2023-11-24T18:59:44.397Z,1.80
2023-11-24T19:02:16.516Z,1.67
2023-11-24T19:04:46.672Z,1.03
2023-11-24T19:07:20.959Z,1.53
2023-11-24T19:09:52.770Z,1.00
2023-11-24T19:12:22.728Z,2.07
2023-11-24T19:14:52.714Z,2.00
2023-11-24T19:17:22.682Z,2.17
2023-11-24T19:19:52.590Z,2.20
2023-11-24T19:22:25.302Z,2.47
2023-11-24T19:24:55.212Z,1.43
2023-11-24T19:27:25.489Z,0.97
2023-11-24T19:29:55.445Z,1.20
2023-11-24T19:32:26.464Z,0.90
2023-11-24T19:34:56.901Z,1.00
2023-11-24T19:37:29.671Z,1.03
2023-11-24T19:40:01.062Z,1.50
2023-11-24T19:42:31.063Z,1.50
2023-11-24T19:45:02.212Z,1.87
2023-11-24T19:47:32.199Z,1.60
2023-11-24T19:50:02.177Z,2.00
2023-11-24T19:52:36.032Z,1.40
2023-11-24T19:55:06.293Z,1.60
2023-11-24T19:57:36.334Z,2.53
2023-11-24T20:00:10.092Z,3.53
2023-11-24T20:02:40.243Z,3.73
2023-11-24T20:05:11.568Z,2.67
2023-11-24T20:07:44.258Z,3.60
2023-11-24T20:10:14.225Z,3.07
2023-11-24T20:12:45.532Z,2.47
2023-11-24T20:15:15.754Z,1.97
2023-11-24T20:17:46.525Z,1.70
2023-11-24T20:20:17.674Z,1.73
2023-11-24T20:22:50.225Z,1.33
2023-11-24T20:25:20.440Z,1.80
2023-11-24T20:27:50.473Z,1.67
2023-11-24T20:30:22.164Z,2.40
2023-11-24T20:32:56.087Z,1.57
2023-11-24T20:35:26.164Z,1.53
2023-11-24T20:37:58.649Z,1.70
2023-11-24T20:40:28.989Z,1.13
2023-11-24T20:42:59.019Z,1.07
2023-11-24T20:45:29.200Z,1.20
2023-11-24T20:47:59.742Z,1.47
2023-11-24T20:50:29.839Z,1.80
2023-11-24T20:53:02.462Z,1.20
2023-11-24T20:58:03.217Z,1.17
2023-11-24T21:00:34.646Z,0.90
2023-11-24T21:03:04.782Z,1.33
2023-11-24T21:05:35.742Z,1.20
2023-11-24T21:08:09.077Z,1.40
2023-11-24T21:10:39.751Z,1.00
2023-11-24T21:13:10.496Z,1.27
2023-11-24T21:15:42.554Z,1.03
2023-11-24T21:18:13.404Z,1.20
2023-11-24T21:20:44.595Z,0.80
2023-11-24T21:23:17.570Z,1.23
2023-11-24T21:25:47.874Z,1.40
2023-11-24T21:28:20.325Z,1.80
2023-11-24T21:30:51.496Z,1.10
2023-11-24T21:33:21.556Z,1.17
2023-11-24T21:35:51.872Z,1.60
2023-11-24T21:38:26.750Z,1.00
2023-11-24T21:40:56.597Z,1.33
2023-11-24T21:43:26.611Z,1.20
2023-11-24T21:45:56.599Z,0.63
2023-11-24T21:48:28.768Z,1.00
2023-11-24T21:50:58.748Z,0.40
2023-11-24T21:53:31.341Z,0.80
2023-11-24T21:56:01.337Z,0.80
2023-11-24T21:58:31.988Z,0.37
2023-11-24T22:01:02.759Z,0.67
2023-11-24T22:03:33.706Z,0.57
2023-11-24T22:06:04.919Z,0.70
2023-11-24T22:08:37.454Z,0.50
2023-11-24T22:11:07.942Z,0.80
2023-11-24T22:13:38.065Z,0.50
2023-11-24T22:16:09.385Z,0.53
2023-11-24T22:18:39.361Z,0.77
2023-11-24T22:21:09.751Z,0.60
2023-11-24T22:23:44.997Z,0.90
2023-11-24T22:26:21.155Z,0.90
2023-11-24T22:28:53.691Z,0.70
2023-11-24T22:31:24.700Z,1.00
2023-11-24T22:33:54.624Z,0.67
2023-11-24T22:36:25.284Z,0.90
2023-11-24T22:38:58.233Z,0.80
2023-11-24T22:41:28.866Z,1.07
2023-11-24T22:43:58.770Z,0.97
2023-11-24T22:46:30.062Z,1.00
2023-11-24T22:49:00.139Z,1.17
2023-11-24T22:51:30.787Z,1.30
2023-11-24T22:54:03.595Z,1.20
2023-11-24T22:56:33.537Z,0.80
2023-11-24T22:59:03.494Z,1.03
2023-11-24T23:01:34.815Z,1.10
2023-11-24T23:04:06.597Z,1.30
2023-11-24T23:06:37.160Z,1.30
2023-11-24T23:09:10.833Z,1.30
2023-11-24T23:11:41.895Z,1.30
2023-11-24T23:14:11.961Z,1.93
2023-11-24T23:16:41.849Z,1.80
2023-11-24T23:19:13.289Z,1.67
2023-11-24T23:21:43.713Z,1.60
2023-11-24T23:24:16.818Z,1.30
2023-11-24T23:26:46.684Z,1.67
2023-11-24T23:29:16.873Z,1.83
2023-11-24T23:31:48.002Z,1.50
2023-11-24T23:34:18.030Z,1.47
2023-11-24T23:36:48.370Z,2.13
2023-11-24T23:39:20.830Z,1.60
2023-11-24T23:41:50.725Z,0.90
2023-11-24T23:44:20.561Z,1.70
2023-11-24T23:46:50.596Z,1.67
2023-11-24T23:49:20.497Z,1.60
2023-11-24T23:51:50.378Z,1.27
2023-11-24T23:54:22.893Z,1.57
2023-11-24T23:56:52.717Z,1.40
2023-11-24T23:59:22.584Z,1.17
